sensor_id;sensor_type;location;lat;lon;timestamp;temperature;humidity
16271;DHT22;8243;49.048;8.396;2024-02-21T00:01:39;8.30;99.90
16271;DHT22;8243;49.048;8.396;2024-02-21T00:04:06;8.30;99.90
16271;DHT22;8243;49.048;8.396;2024-02-21T00:06:32;8.30;99.90
16271;DHT22;8243;49.048;8.396;2024-02-21T00:08:58;8.30;99.90
16271;DHT22;8243;49.048;8.396;2024-02-21T00:11:23;8.30;99.90
16271;DHT22;8243;49.048;8.396;2024-02-21T00:13:49;8.40;99.90
16271;DHT22;8243;49.048;8.396;2024-02-21T00:16:16;8.30;99.90
16271;DHT22;8243;49.048;8.396;2024-02-21T00:18:42;8.30;99.90
16271;DHT22;8243;49.048;8.396;2024-02-21T00:21:07;8.30;99.90
16271;DHT22;8243;49.048;8.396;2024-02-21T00:23:33;8.30;99.90
16271;DHT22;8243;49.048;8.396;2024-02-21T00:25:58;8.30;99.90
16271;DHT22;8243;49.048;8.396;2024-02-21T00:28:24;8.30;99.90
16271;DHT22;8243;49.048;8.396;2024-02-21T00:30:49;8.30;99.90
16271;DHT22;8243;49.048;8.396;2024-02-21T00:33:17;8.30;99.90
16271;DHT22;8243;49.048;8.396;2024-02-21T00:35:42;8.30;99.90
16271;DHT22;8243;49.048;8.396;2024-02-21T00:38:08;8.30;99.90
16271;DHT22;8243;49.048;8.396;2024-02-21T00:40:34;8.30;99.90
16271;DHT22;8243;49.048;8.396;2024-02-21T00:43:00;8.30;99.90
16271;DHT22;8243;49.048;8.396;2024-02-21T00:45:26;8.30;99.90
16271;DHT22;8243;49.048;8.396;2024-02-21T00:47:51;8.30;99.90
16271;DHT22;8243;49.048;8.396;2024-02-21T00:50:17;8.30;99.90
16271;DHT22;8243;49.048;8.396;2024-02-21T00:52:42;8.30;99.90
16271;DHT22;8243;49.048;8.396;2024-02-21T00:55:08;8.30;99.90
16271;DHT22;8243;49.048;8.396;2024-02-21T00:57:34;8.30;99.90
16271;DHT22;8243;49.048;8.396;2024-02-21T01:00:01;8.30;99.90
16271;DHT22;8243;49.048;8.396;2024-02-21T01:02:26;8.30;99.90
16271;DHT22;8243;49.048;8.396;2024-02-21T01:04:52;8.20;99.90
16271;DHT22;8243;49.048;8.396;2024-02-21T01:07:17;8.20;99.90
16271;DHT22;8243;49.048;8.396;2024-02-21T01:09:43;8.20;99.90
16271;DHT22;8243;49.048;8.396;2024-02-21T01:12:08;8.20;99.90
16271;DHT22;8243;49.048;8.396;2024-02-21T01:14:34;8.20;99.90
16271;DHT22;8243;49.048;8.396;2024-02-21T01:16:59;8.10;99.90
16271;DHT22;8243;49.048;8.396;2024-02-21T01:19:25;8.10;99.90
16271;DHT22;8243;49.048;8.396;2024-02-21T01:21:50;8.00;99.90
16271;DHT22;8243;49.048;8.396;2024-02-21T01:24:16;8.00;99.90
16271;DHT22;8243;49.048;8.396;2024-02-21T01:26:41;7.90;99.90
16271;DHT22;8243;49.048;8.396;2024-02-21T01:29:07;7.90;99.90
16271;DHT22;8243;49.048;8.396;2024-02-21T01:31:32;7.90;99.90
16271;DHT22;8243;49.048;8.396;2024-02-21T01:33:58;7.80;99.90
16271;DHT22;8243;49.048;8.396;2024-02-21T01:36:23;7.80;99.90
16271;DHT22;8243;49.048;8.396;2024-02-21T01:38:49;7.70;99.90
16271;DHT22;8243;49.048;8.396;2024-02-21T01:41:15;7.70;99.90
16271;DHT22;8243;49.048;8.396;2024-02-21T01:43:41;7.70;99.90
16271;DHT22;8243;49.048;8.396;2024-02-21T01:46:08;7.70;99.90
16271;DHT22;8243;49.048;8.396;2024-02-21T01:48:34;7.70;99.90
16271;DHT22;8243;49.048;8.396;2024-02-21T01:51:00;7.70;99.90
16271;DHT22;8243;49.048;8.396;2024-02-21T01:53:34;7.70;99.90
16271;DHT22;8243;49.048;8.396;2024-02-21T01:56:00;7.70;99.90
16271;DHT22;8243;49.048;8.396;2024-02-21T01:58:27;7.70;99.90
16271;DHT22;8243;49.048;8.396;2024-02-21T02:00:56;7.70;99.90
16271;DHT22;8243;49.048;8.396;2024-02-21T02:03:22;7.70;99.90
16271;DHT22;8243;49.048;8.396;2024-02-21T02:05:49;7.70;99.90
16271;DHT22;8243;49.048;8.396;2024-02-21T02:08:19;7.70;99.90
16271;DHT22;8243;49.048;8.396;2024-02-21T02:10:45;7.70;99.90
16271;DHT22;8243;49.048;8.396;2024-02-21T02:13:12;7.70;99.90
16271;DHT22;8243;49.048;8.396;2024-02-21T02:15:39;7.70;99.90
16271;DHT22;8243;49.048;8.396;2024-02-21T02:18:05;7.70;99.90
16271;DHT22;8243;49.048;8.396;2024-02-21T02:20:30;7.80;99.90
16271;DHT22;8243;49.048;8.396;2024-02-21T02:22:58;7.70;99.90
16271;DHT22;8243;49.048;8.396;2024-02-21T02:25:25;7.80;99.90
16271;DHT22;8243;49.048;8.396;2024-02-21T02:27:51;7.70;99.90
16271;DHT22;8243;49.048;8.396;2024-02-21T02:30:18;7.80;99.90
16271;DHT22;8243;49.048;8.396;2024-02-21T02:32:45;7.80;99.90
16271;DHT22;8243;49.048;8.396;2024-02-21T02:35:11;7.80;99.90
16271;DHT22;8243;49.048;8.396;2024-02-21T02:37:37;7.70;99.90
16271;DHT22;8243;49.048;8.396;2024-02-21T02:40:07;7.80;99.90
16271;DHT22;8243;49.048;8.396;2024-02-21T02:42:33;7.70;99.90
16271;DHT22;8243;49.048;8.396;2024-02-21T02:44:59;7.70;99.90
16271;DHT22;8243;49.048;8.396;2024-02-21T02:47:24;7.70;99.90
16271;DHT22;8243;49.048;8.396;2024-02-21T02:49:50;7.60;99.90
16271;DHT22;8243;49.048;8.396;2024-02-21T02:52:17;7.60;99.90
16271;DHT22;8243;49.048;8.396;2024-02-21T02:54:43;7.60;99.90
16271;DHT22;8243;49.048;8.396;2024-02-21T02:57:09;7.70;99.90
16271;DHT22;8243;49.048;8.396;2024-02-21T02:59:35;7.60;99.90
16271;DHT22;8243;49.048;8.396;2024-02-21T03:02:00;7.70;99.90
16271;DHT22;8243;49.048;8.396;2024-02-21T03:04:26;7.70;99.90
16271;DHT22;8243;49.048;8.396;2024-02-21T03:06:51;7.70;99.90
16271;DHT22;8243;49.048;8.396;2024-02-21T03:09:17;7.70;99.90
16271;DHT22;8243;49.048;8.396;2024-02-21T03:11:44;7.60;99.90
16271;DHT22;8243;49.048;8.396;2024-02-21T03:14:10;7.60;99.90
16271;DHT22;8243;49.048;8.396;2024-02-21T03:16:35;7.60;99.90
16271;DHT22;8243;49.048;8.396;2024-02-21T03:19:01;7.50;99.90
16271;DHT22;8243;49.048;8.396;2024-02-21T03:21:27;7.60;99.90
16271;DHT22;8243;49.048;8.396;2024-02-21T03:23:52;7.60;99.90
16271;DHT22;8243;49.048;8.396;2024-02-21T03:26:18;7.70;99.90
16271;DHT22;8243;49.048;8.396;2024-02-21T03:28:44;7.70;99.90
16271;DHT22;8243;49.048;8.396;2024-02-21T03:31:13;7.70;99.90
16271;DHT22;8243;49.048;8.396;2024-02-21T03:33:42;7.80;99.90
16271;DHT22;8243;49.048;8.396;2024-02-21T03:36:13;7.80;99.90
16271;DHT22;8243;49.048;8.396;2024-02-21T03:38:39;7.80;99.90
16271;DHT22;8243;49.048;8.396;2024-02-21T03:41:04;7.80;99.90
16271;DHT22;8243;49.048;8.396;2024-02-21T03:43:30;7.80;99.90
16271;DHT22;8243;49.048;8.396;2024-02-21T03:45:55;7.90;99.90
16271;DHT22;8243;49.048;8.396;2024-02-21T03:48:21;7.90;99.90
16271;DHT22;8243;49.048;8.396;2024-02-21T03:50:46;7.90;99.90
16271;DHT22;8243;49.048;8.396;2024-02-21T03:53:12;7.80;99.90
16271;DHT22;8243;49.048;8.396;2024-02-21T03:55:37;7.80;99.90
16271;DHT22;8243;49.048;8.396;2024-02-21T03:58:06;7.80;99.90
16271;DHT22;8243;49.048;8.396;2024-02-21T04:00:32;7.70;99.90
16271;DHT22;8243;49.048;8.396;2024-02-21T04:02:57;7.70;99.90
16271;DHT22;8243;49.048;8.396;2024-02-21T04:05:23;7.60;99.90
16271;DHT22;8243;49.048;8.396;2024-02-21T04:07:48;7.60;99.90
16271;DHT22;8243;49.048;8.396;2024-02-21T04:10:14;7.50;99.90
16271;DHT22;8243;49.048;8.396;2024-02-21T04:12:39;7.50;99.90
16271;DHT22;8243;49.048;8.396;2024-02-21T04:15:05;7.50;99.90
16271;DHT22;8243;49.048;8.396;2024-02-21T04:17:31;7.40;99.90
16271;DHT22;8243;49.048;8.396;2024-02-21T04:20:03;7.40;99.90
16271;DHT22;8243;49.048;8.396;2024-02-21T04:22:34;7.40;99.90
16271;DHT22;8243;49.048;8.396;2024-02-21T04:25:00;7.40;99.90
16271;DHT22;8243;49.048;8.396;2024-02-21T04:27:26;7.30;99.90
16271;DHT22;8243;49.048;8.396;2024-02-21T04:29:52;7.20;99.90
16271;DHT22;8243;49.048;8.396;2024-02-21T04:32:20;7.20;99.90
16271;DHT22;8243;49.048;8.396;2024-02-21T04:34:45;7.20;99.90
16271;DHT22;8243;49.048;8.396;2024-02-21T04:37:11;7.10;99.90
16271;DHT22;8243;49.048;8.396;2024-02-21T04:39:37;7.10;99.90
16271;DHT22;8243;49.048;8.396;2024-02-21T04:42:02;7.10;99.90
16271;DHT22;8243;49.048;8.396;2024-02-21T04:44:28;7.10;99.90
16271;DHT22;8243;49.048;8.396;2024-02-21T04:46:54;7.10;99.90
16271;DHT22;8243;49.048;8.396;2024-02-21T04:49:19;7.20;99.90
16271;DHT22;8243;49.048;8.396;2024-02-21T04:51:45;7.20;99.90
16271;DHT22;8243;49.048;8.396;2024-02-21T04:54:10;7.20;99.90
16271;DHT22;8243;49.048;8.396;2024-02-21T04:56:36;7.20;99.90
16271;DHT22;8243;49.048;8.396;2024-02-21T04:59:02;7.10;99.90
16271;DHT22;8243;49.048;8.396;2024-02-21T05:01:28;7.10;99.90
16271;DHT22;8243;49.048;8.396;2024-02-21T05:03:54;7.00;99.90
16271;DHT22;8243;49.048;8.396;2024-02-21T05:06:19;7.00;99.90
16271;DHT22;8243;49.048;8.396;2024-02-21T05:08:45;6.90;99.90
16271;DHT22;8243;49.048;8.396;2024-02-21T05:11:10;6.90;99.90
16271;DHT22;8243;49.048;8.396;2024-02-21T05:13:48;6.90;99.90
16271;DHT22;8243;49.048;8.396;2024-02-21T05:16:14;6.90;99.90
16271;DHT22;8243;49.048;8.396;2024-02-21T05:18:40;6.90;99.90
16271;DHT22;8243;49.048;8.396;2024-02-21T05:21:08;6.80;99.90
16271;DHT22;8243;49.048;8.396;2024-02-21T05:23:33;6.70;99.90
16271;DHT22;8243;49.048;8.396;2024-02-21T05:25:59;6.70;99.90
16271;DHT22;8243;49.048;8.396;2024-02-21T05:28:24;6.60;99.90
16271;DHT22;8243;49.048;8.396;2024-02-21T05:30:50;6.60;99.90
16271;DHT22;8243;49.048;8.396;2024-02-21T05:33:15;6.60;99.90
16271;DHT22;8243;49.048;8.396;2024-02-21T05:35:47;6.60;99.90
16271;DHT22;8243;49.048;8.396;2024-02-21T05:38:14;6.60;99.90
16271;DHT22;8243;49.048;8.396;2024-02-21T05:40:39;6.50;99.90
16271;DHT22;8243;49.048;8.396;2024-02-21T05:43:06;6.40;99.90
16271;DHT22;8243;49.048;8.396;2024-02-21T05:45:32;6.40;99.90
16271;DHT22;8243;49.048;8.396;2024-02-21T05:47:57;6.30;99.90
16271;DHT22;8243;49.048;8.396;2024-02-21T05:50:23;6.30;99.90
16271;DHT22;8243;49.048;8.396;2024-02-21T05:52:51;6.30;99.90
16271;DHT22;8243;49.048;8.396;2024-02-21T05:55:18;6.30;99.90
16271;DHT22;8243;49.048;8.396;2024-02-21T05:57:43;6.20;99.90
16271;DHT22;8243;49.048;8.396;2024-02-21T06:00:09;6.20;99.90
16271;DHT22;8243;49.048;8.396;2024-02-21T06:02:35;6.10;99.90
16271;DHT22;8243;49.048;8.396;2024-02-21T06:05:00;6.00;99.90
16271;DHT22;8243;49.048;8.396;2024-02-21T06:07:26;6.00;99.90
16271;DHT22;8243;49.048;8.396;2024-02-21T06:09:51;6.00;99.90
16271;DHT22;8243;49.048;8.396;2024-02-21T06:12:17;6.00;99.90
16271;DHT22;8243;49.048;8.396;2024-02-21T06:14:43;5.90;99.90
16271;DHT22;8243;49.048;8.396;2024-02-21T06:17:08;5.90;99.90
16271;DHT22;8243;49.048;8.396;2024-02-21T06:19:34;5.80;99.90
16271;DHT22;8243;49.048;8.396;2024-02-21T06:22:00;5.80;99.90
16271;DHT22;8243;49.048;8.396;2024-02-21T06:24:32;5.80;99.90
16271;DHT22;8243;49.048;8.396;2024-02-21T06:26:57;5.80;99.90
16271;DHT22;8243;49.048;8.396;2024-02-21T06:29:23;5.80;99.90
16271;DHT22;8243;49.048;8.396;2024-02-21T06:32:12;5.80;99.90
16271;DHT22;8243;49.048;8.396;2024-02-21T06:34:37;5.90;99.90
16271;DHT22;8243;49.048;8.396;2024-02-21T06:37:03;5.90;99.90
16271;DHT22;8243;49.048;8.396;2024-02-21T06:39:29;5.90;99.90
16271;DHT22;8243;49.048;8.396;2024-02-21T06:41:55;5.90;99.90
16271;DHT22;8243;49.048;8.396;2024-02-21T06:44:21;5.90;99.90
16271;DHT22;8243;49.048;8.396;2024-02-21T06:46:50;6.00;99.90
16271;DHT22;8243;49.048;8.396;2024-02-21T06:49:15;6.10;99.90
16271;DHT22;8243;49.048;8.396;2024-02-21T06:51:45;6.10;99.90
16271;DHT22;8243;49.048;8.396;2024-02-21T06:54:10;6.20;99.90
16271;DHT22;8243;49.048;8.396;2024-02-21T06:56:36;6.30;99.90
16271;DHT22;8243;49.048;8.396;2024-02-21T06:59:05;6.40;99.90
16271;DHT22;8243;49.048;8.396;2024-02-21T07:01:30;6.60;99.90
16271;DHT22;8243;49.048;8.396;2024-02-21T07:03:56;6.80;99.90
16271;DHT22;8243;49.048;8.396;2024-02-21T07:06:22;7.10;99.90
16271;DHT22;8243;49.048;8.396;2024-02-21T07:08:48;7.40;99.90
16271;DHT22;8243;49.048;8.396;2024-02-21T07:11:13;7.60;99.90
16271;DHT22;8243;49.048;8.396;2024-02-21T07:13:39;7.70;99.90
16271;DHT22;8243;49.048;8.396;2024-02-21T07:16:13;8.00;99.90
16271;DHT22;8243;49.048;8.396;2024-02-21T07:18:38;8.20;99.90
16271;DHT22;8243;49.048;8.396;2024-02-21T07:21:04;8.50;99.90
16271;DHT22;8243;49.048;8.396;2024-02-21T07:23:29;8.70;99.90
16271;DHT22;8243;49.048;8.396;2024-02-21T07:25:55;8.80;99.90
16271;DHT22;8243;49.048;8.396;2024-02-21T07:28:20;8.80;99.90
16271;DHT22;8243;49.048;8.396;2024-02-21T07:30:47;8.70;99.90
16271;DHT22;8243;49.048;8.396;2024-02-21T07:33:13;8.80;99.90
16271;DHT22;8243;49.048;8.396;2024-02-21T07:35:38;8.90;99.90
16271;DHT22;8243;49.048;8.396;2024-02-21T07:38:06;9.10;99.80
16271;DHT22;8243;49.048;8.396;2024-02-21T07:40:32;9.30;97.40
16271;DHT22;8243;49.048;8.396;2024-02-21T07:42:58;9.30;95.60
16271;DHT22;8243;49.048;8.396;2024-02-21T07:45:32;9.20;95.50
16271;DHT22;8243;49.048;8.396;2024-02-21T07:47:58;9.20;95.00
16271;DHT22;8243;49.048;8.396;2024-02-21T07:50:23;9.40;94.10
16271;DHT22;8243;49.048;8.396;2024-02-21T07:52:49;9.40;93.40
16271;DHT22;8243;49.048;8.396;2024-02-21T07:55:31;9.50;92.40
16271;DHT22;8243;49.048;8.396;2024-02-21T07:57:56;9.60;91.70
16271;DHT22;8243;49.048;8.396;2024-02-21T08:00:22;9.50;90.30
16271;DHT22;8243;49.048;8.396;2024-02-21T08:02:48;9.30;92.20
16271;DHT22;8243;49.048;8.396;2024-02-21T08:05:14;9.40;92.10
16271;DHT22;8243;49.048;8.396;2024-02-21T08:07:40;9.50;92.00
16271;DHT22;8243;49.048;8.396;2024-02-21T08:10:06;9.70;90.70
16271;DHT22;8243;49.048;8.396;2024-02-21T08:12:35;9.90;89.40
16271;DHT22;8243;49.048;8.396;2024-02-21T08:15:01;10.10;86.50
16271;DHT22;8243;49.048;8.396;2024-02-21T08:17:29;10.10;82.90
16271;DHT22;8243;49.048;8.396;2024-02-21T08:19:55;10.20;82.00
16271;DHT22;8243;49.048;8.396;2024-02-21T08:22:21;10.40;81.10
16271;DHT22;8243;49.048;8.396;2024-02-21T08:24:46;10.10;78.00
16271;DHT22;8243;49.048;8.396;2024-02-21T08:27:12;10.20;80.00
16271;DHT22;8243;49.048;8.396;2024-02-21T08:29:37;10.10;79.50
16271;DHT22;8243;49.048;8.396;2024-02-21T08:32:03;10.00;79.90
16271;DHT22;8243;49.048;8.396;2024-02-21T08:34:29;10.00;78.90
16271;DHT22;8243;49.048;8.396;2024-02-21T08:40:17;10.10;78.00
16271;DHT22;8243;49.048;8.396;2024-02-21T08:42:54;10.20;77.40
16271;DHT22;8243;49.048;8.396;2024-02-21T08:45:20;10.30;76.40
16271;DHT22;8243;49.048;8.396;2024-02-21T08:47:45;10.10;75.30
16271;DHT22;8243;49.048;8.396;2024-02-21T08:50:11;10.20;77.00
16271;DHT22;8243;49.048;8.396;2024-02-21T08:52:37;10.40;74.70
16271;DHT22;8243;49.048;8.396;2024-02-21T08:55:06;10.50;74.90
16271;DHT22;8243;49.048;8.396;2024-02-21T08:57:35;10.70;72.90
16271;DHT22;8243;49.048;8.396;2024-02-21T09:00:06;10.70;71.20
16271;DHT22;8243;49.048;8.396;2024-02-21T09:02:40;11.10;68.90
16271;DHT22;8243;49.048;8.396;2024-02-21T09:05:06;11.40;67.00
16271;DHT22;8243;49.048;8.396;2024-02-21T09:07:32;11.70;62.00
16271;DHT22;8243;49.048;8.396;2024-02-21T09:09:57;12.20;57.20
16271;DHT22;8243;49.048;8.396;2024-02-21T09:12:23;12.20;54.20
16271;DHT22;8243;49.048;8.396;2024-02-21T09:14:49;12.30;52.80
16271;DHT22;8243;49.048;8.396;2024-02-21T09:17:19;12.80;51.00
16271;DHT22;8243;49.048;8.396;2024-02-21T09:19:46;13.10;46.40
16271;DHT22;8243;49.048;8.396;2024-02-21T09:22:15;13.30;44.40
16271;DHT22;8243;49.048;8.396;2024-02-21T09:24:41;13.70;40.50
16271;DHT22;8243;49.048;8.396;2024-02-21T09:27:06;13.80;37.40
16271;DHT22;8243;49.048;8.396;2024-02-21T09:29:34;13.90;34.80
16271;DHT22;8243;49.048;8.396;2024-02-21T09:32:00;14.20;33.20
16271;DHT22;8243;49.048;8.396;2024-02-21T09:34:25;14.40;31.20
16271;DHT22;8243;49.048;8.396;2024-02-21T09:36:55;14.20;29.70
16271;DHT22;8243;49.048;8.396;2024-02-21T09:39:21;14.30;29.00
16271;DHT22;8243;49.048;8.396;2024-02-21T09:41:53;14.40;28.10
16271;DHT22;8243;49.048;8.396;2024-02-21T09:44:24;14.30;27.50
16271;DHT22;8243;49.048;8.396;2024-02-21T09:46:57;13.80;27.90
16271;DHT22;8243;49.048;8.396;2024-02-21T09:49:33;13.80;28.30
16271;DHT22;8243;49.048;8.396;2024-02-21T09:52:00;13.60;28.60
16271;DHT22;8243;49.048;8.396;2024-02-21T09:54:46;13.50;29.40
16271;DHT22;8243;49.048;8.396;2024-02-21T09:57:14;13.50;29.20
16271;DHT22;8243;49.048;8.396;2024-02-21T09:59:40;13.10;29.60
16271;DHT22;8243;49.048;8.396;2024-02-21T10:02:07;12.90;29.60
16271;DHT22;8243;49.048;8.396;2024-02-21T10:04:33;12.70;29.20
16271;DHT22;8243;49.048;8.396;2024-02-21T10:06:59;12.30;30.60
16271;DHT22;8243;49.048;8.396;2024-02-21T10:09:27;12.30;31.00
16271;DHT22;8243;49.048;8.396;2024-02-21T10:12:11;12.10;32.00
16271;DHT22;8243;49.048;8.396;2024-02-21T10:14:37;12.10;33.40
16271;DHT22;8243;49.048;8.396;2024-02-21T10:17:26;12.20;32.40
16271;DHT22;8243;49.048;8.396;2024-02-21T10:19:51;12.30;32.50
16271;DHT22;8243;49.048;8.396;2024-02-21T10:22:19;12.40;32.60
16271;DHT22;8243;49.048;8.396;2024-02-21T10:24:48;12.30;32.50
16271;DHT22;8243;49.048;8.396;2024-02-21T10:27:14;12.20;32.60
16271;DHT22;8243;49.048;8.396;2024-02-21T10:29:40;12.30;32.50
16271;DHT22;8243;49.048;8.396;2024-02-21T10:32:14;12.20;32.40
16271;DHT22;8243;49.048;8.396;2024-02-21T10:34:41;12.10;32.30
16271;DHT22;8243;49.048;8.396;2024-02-21T10:37:44;12.20;33.40
16271;DHT22;8243;49.048;8.396;2024-02-21T10:40:16;12.20;32.40
16271;DHT22;8243;49.048;8.396;2024-02-21T10:42:42;12.10;33.70
16271;DHT22;8243;49.048;8.396;2024-02-21T10:45:09;12.20;32.70
16271;DHT22;8243;49.048;8.396;2024-02-21T10:53:44;12.60;31.60
16271;DHT22;8243;49.048;8.396;2024-02-21T10:56:29;12.50;31.10
16271;DHT22;8243;49.048;8.396;2024-02-21T10:58:58;12.30;31.10
16271;DHT22;8243;49.048;8.396;2024-02-21T11:01:59;12.30;31.60
16271;DHT22;8243;49.048;8.396;2024-02-21T11:04:25;12.30;31.40
16271;DHT22;8243;49.048;8.396;2024-02-21T11:06:52;12.40;31.20
16271;DHT22;8243;49.048;8.396;2024-02-21T11:09:17;12.50;31.20
16271;DHT22;8243;49.048;8.396;2024-02-21T11:11:44;12.50;30.60
16271;DHT22;8243;49.048;8.396;2024-02-21T11:14:40;12.50;30.30
16271;DHT22;8243;49.048;8.396;2024-02-21T11:17:15;12.50;30.20
16271;DHT22;8243;49.048;8.396;2024-02-21T11:19:43;12.50;30.10
16271;DHT22;8243;49.048;8.396;2024-02-21T11:22:20;12.70;30.10
16271;DHT22;8243;49.048;8.396;2024-02-21T11:28:03;12.90;28.50
16271;DHT22;8243;49.048;8.396;2024-02-21T11:30:36;13.00;28.30
16271;DHT22;8243;49.048;8.396;2024-02-21T11:33:05;13.00;28.50
16271;DHT22;8243;49.048;8.396;2024-02-21T11:35:35;13.10;27.70
16271;DHT22;8243;49.048;8.396;2024-02-21T11:38:11;13.00;28.40
16271;DHT22;8243;49.048;8.396;2024-02-21T11:40:40;13.20;28.80
16271;DHT22;8243;49.048;8.396;2024-02-21T11:43:07;13.30;28.50
16271;DHT22;8243;49.048;8.396;2024-02-21T11:45:32;13.30;27.70
16271;DHT22;8243;49.048;8.396;2024-02-21T11:48:00;13.20;27.40
16271;DHT22;8243;49.048;8.396;2024-02-21T11:50:29;12.90;27.20
16271;DHT22;8243;49.048;8.396;2024-02-21T11:52:56;13.00;27.50
16271;DHT22;8243;49.048;8.396;2024-02-21T11:55:36;13.00;27.90
16271;DHT22;8243;49.048;8.396;2024-02-21T11:58:01;13.10;27.40
16271;DHT22;8243;49.048;8.396;2024-02-21T12:00:27;12.90;26.80
16271;DHT22;8243;49.048;8.396;2024-02-21T12:02:53;12.90;26.90
16271;DHT22;8243;49.048;8.396;2024-02-21T12:05:21;13.10;26.80
16271;DHT22;8243;49.048;8.396;2024-02-21T12:07:49;13.30;27.80
16271;DHT22;8243;49.048;8.396;2024-02-21T12:10:15;13.30;26.10
16271;DHT22;8243;49.048;8.396;2024-02-21T12:12:49;13.10;26.30
16271;DHT22;8243;49.048;8.396;2024-02-21T12:15:23;13.10;26.40
16271;DHT22;8243;49.048;8.396;2024-02-21T12:17:49;13.10;26.10
16271;DHT22;8243;49.048;8.396;2024-02-21T12:20:17;13.00;26.00
16271;DHT22;8243;49.048;8.396;2024-02-21T12:22:44;13.00;25.60
16271;DHT22;8243;49.048;8.396;2024-02-21T12:25:20;13.10;25.60
16271;DHT22;8243;49.048;8.396;2024-02-21T12:28:01;13.20;25.80
16271;DHT22;8243;49.048;8.396;2024-02-21T12:30:39;13.20;24.90
16271;DHT22;8243;49.048;8.396;2024-02-21T12:33:26;13.40;24.70
16271;DHT22;8243;49.048;8.396;2024-02-21T12:36:11;13.50;24.60
16271;DHT22;8243;49.048;8.396;2024-02-21T12:38:37;13.40;25.10
16271;DHT22;8243;49.048;8.396;2024-02-21T12:41:03;13.60;24.20
16271;DHT22;8243;49.048;8.396;2024-02-21T12:43:30;13.40;23.60
16271;DHT22;8243;49.048;8.396;2024-02-21T12:45:55;13.30;23.50
16271;DHT22;8243;49.048;8.396;2024-02-21T12:48:24;13.30;23.80
16271;DHT22;8243;49.048;8.396;2024-02-21T12:50:56;13.10;23.70
16271;DHT22;8243;49.048;8.396;2024-02-21T12:53:21;13.00;23.80
16271;DHT22;8243;49.048;8.396;2024-02-21T12:55:48;13.10;24.40
16271;DHT22;8243;49.048;8.396;2024-02-21T12:58:14;13.00;25.00
16271;DHT22;8243;49.048;8.396;2024-02-21T13:00:40;13.10;23.60
16271;DHT22;8243;49.048;8.396;2024-02-21T13:03:06;13.00;23.80
16271;DHT22;8243;49.048;8.396;2024-02-21T13:05:32;13.00;24.00
16271;DHT22;8243;49.048;8.396;2024-02-21T13:08:01;13.20;24.00
16271;DHT22;8243;49.048;8.396;2024-02-21T13:10:30;13.30;23.60
16271;DHT22;8243;49.048;8.396;2024-02-21T13:12:55;13.30;23.60
16271;DHT22;8243;49.048;8.396;2024-02-21T13:15:21;13.20;22.90
16271;DHT22;8243;49.048;8.396;2024-02-21T13:17:47;13.20;22.60
16271;DHT22;8243;49.048;8.396;2024-02-21T13:20:13;13.20;22.70
16271;DHT22;8243;49.048;8.396;2024-02-21T13:22:38;13.00;22.60
16271;DHT22;8243;49.048;8.396;2024-02-21T13:25:04;13.00;22.90
16271;DHT22;8243;49.048;8.396;2024-02-21T13:27:33;13.20;22.80
16271;DHT22;8243;49.048;8.396;2024-02-21T13:29:58;13.10;22.50
16271;DHT22;8243;49.048;8.396;2024-02-21T13:32:29;13.00;23.50
16271;DHT22;8243;49.048;8.396;2024-02-21T13:34:56;13.20;23.10
16271;DHT22;8243;49.048;8.396;2024-02-21T13:37:27;13.10;22.50
16271;DHT22;8243;49.048;8.396;2024-02-21T13:39:56;13.00;22.70
16271;DHT22;8243;49.048;8.396;2024-02-21T13:42:21;13.00;22.10
16271;DHT22;8243;49.048;8.396;2024-02-21T13:44:47;12.90;22.40
16271;DHT22;8243;49.048;8.396;2024-02-21T13:47:14;12.90;22.70
16271;DHT22;8243;49.048;8.396;2024-02-21T13:49:40;12.80;23.00
16271;DHT22;8243;49.048;8.396;2024-02-21T13:52:07;13.00;23.90
16271;DHT22;8243;49.048;8.396;2024-02-21T13:54:34;13.00;22.90
16271;DHT22;8243;49.048;8.396;2024-02-21T13:57:00;12.90;22.90
16271;DHT22;8243;49.048;8.396;2024-02-21T13:59:27;12.90;22.70
16271;DHT22;8243;49.048;8.396;2024-02-21T14:01:53;13.00;22.80
16271;DHT22;8243;49.048;8.396;2024-02-21T14:04:19;13.10;22.80
16271;DHT22;8243;49.048;8.396;2024-02-21T14:06:45;13.10;22.60
16271;DHT22;8243;49.048;8.396;2024-02-21T14:09:12;13.10;22.40
16271;DHT22;8243;49.048;8.396;2024-02-21T14:11:38;13.00;22.60
16271;DHT22;8243;49.048;8.396;2024-02-21T14:14:05;12.90;22.30
16271;DHT22;8243;49.048;8.396;2024-02-21T14:16:31;12.90;22.70
16271;DHT22;8243;49.048;8.396;2024-02-21T14:18:58;12.90;23.00
16271;DHT22;8243;49.048;8.396;2024-02-21T14:21:24;12.90;22.70
16271;DHT22;8243;49.048;8.396;2024-02-21T14:23:50;12.80;23.50
16271;DHT22;8243;49.048;8.396;2024-02-21T14:26:15;12.80;23.40
16271;DHT22;8243;49.048;8.396;2024-02-21T14:28:41;12.70;23.80
16271;DHT22;8243;49.048;8.396;2024-02-21T14:31:07;12.70;23.60
16271;DHT22;8243;49.048;8.396;2024-02-21T14:33:47;12.70;24.60
16271;DHT22;8243;49.048;8.396;2024-02-21T14:36:13;12.90;24.30
16271;DHT22;8243;49.048;8.396;2024-02-21T14:38:43;13.00;24.10
16271;DHT22;8243;49.048;8.396;2024-02-21T14:41:11;13.10;24.30
16271;DHT22;8243;49.048;8.396;2024-02-21T14:43:39;13.10;24.30
16271;DHT22;8243;49.048;8.396;2024-02-21T14:46:05;13.10;23.80
16271;DHT22;8243;49.048;8.396;2024-02-21T14:48:31;13.10;24.40
16271;DHT22;8243;49.048;8.396;2024-02-21T14:50:58;13.00;25.20
16271;DHT22;8243;49.048;8.396;2024-02-21T14:53:34;13.00;24.50
16271;DHT22;8243;49.048;8.396;2024-02-21T14:56:18;13.10;24.60
16271;DHT22;8243;49.048;8.396;2024-02-21T14:58:56;13.10;24.70
16271;DHT22;8243;49.048;8.396;2024-02-21T15:01:22;13.00;25.20
16271;DHT22;8243;49.048;8.396;2024-02-21T15:03:47;12.90;24.90
16271;DHT22;8243;49.048;8.396;2024-02-21T15:06:13;12.80;25.20
16271;DHT22;8243;49.048;8.396;2024-02-21T15:08:38;12.80;25.40
16271;DHT22;8243;49.048;8.396;2024-02-21T15:11:04;12.80;25.00
16271;DHT22;8243;49.048;8.396;2024-02-21T15:13:30;12.70;25.30
16271;DHT22;8243;49.048;8.396;2024-02-21T15:15:55;12.70;25.70
16271;DHT22;8243;49.048;8.396;2024-02-21T15:18:21;12.70;26.00
16271;DHT22;8243;49.048;8.396;2024-02-21T15:20:47;12.70;26.40
16271;DHT22;8243;49.048;8.396;2024-02-21T15:23:14;12.50;25.70
16271;DHT22;8243;49.048;8.396;2024-02-21T15:25:39;12.40;26.80
16271;DHT22;8243;49.048;8.396;2024-02-21T15:28:05;12.40;26.90
16271;DHT22;8243;49.048;8.396;2024-02-21T15:30:31;12.40;27.10
16271;DHT22;8243;49.048;8.396;2024-02-21T15:32:57;12.40;27.20
16271;DHT22;8243;49.048;8.396;2024-02-21T15:35:28;12.40;27.20
16271;DHT22;8243;49.048;8.396;2024-02-21T15:37:54;12.40;27.40
16271;DHT22;8243;49.048;8.396;2024-02-21T15:40:22;12.40;27.90
16271;DHT22;8243;49.048;8.396;2024-02-21T15:42:48;12.20;28.20
16271;DHT22;8243;49.048;8.396;2024-02-21T15:45:14;12.30;28.40
16271;DHT22;8243;49.048;8.396;2024-02-21T15:47:40;12.20;28.60
16271;DHT22;8243;49.048;8.396;2024-02-21T15:50:06;12.20;28.70
16271;DHT22;8243;49.048;8.396;2024-02-21T15:52:32;12.10;29.50
16271;DHT22;8243;49.048;8.396;2024-02-21T15:54:58;12.00;29.90
16271;DHT22;8243;49.048;8.396;2024-02-21T15:57:23;12.00;31.60
16271;DHT22;8243;49.048;8.396;2024-02-21T15:59:49;12.00;32.30
16271;DHT22;8243;49.048;8.396;2024-02-21T16:02:15;11.90;32.60
16271;DHT22;8243;49.048;8.396;2024-02-21T16:04:41;12.00;32.40
16271;DHT22;8243;49.048;8.396;2024-02-21T16:07:07;11.90;33.00
16271;DHT22;8243;49.048;8.396;2024-02-21T16:09:33;11.80;33.90